Latest Weather Observations for Oakey

IDQ60901

Issued at 12:15 pm EST Thursday 2 October 2014 (issued every 10 minutes, with the page automatically refreshed every 10 minutes)

About weather observations | Map of Brisbane area stations | Latest observations for Brisbane area | Other Formats
Station Details ID: 041359 Name: OAKEY AERO Lat: -27.40 Lon: 151.74 Height: 405.69 m
Data from the previous 72 hours. | See also: Recent months at Oakey
Date/Time
EST
Tmp

°C
App
Tmp
°C
Dew
Point
°C
Rel
Hum
%
Delta-T

°C
Wind Press
QNH
hPa
Press
MSL
hPa
Rain
since
9 am
mm
Dir
 
Spd
km/h
Gust
km/h
Spd
kts
Gust
kts
02/12:00pm 21.9 17.5 6.6 37 7.9 NE 19 32 10 17 1020.7 1019.5 0.0
02/11:30am 21.5 17.4 7.7 41 7.3 NNE 19 32 10 17 1021.2 - 0.0
02/11:00am 22.2 17.4 8.7 42 7.3 NE 24 37 13 20 1021.5 - 0.0
02/10:30am 20.8 15.2 8.8 46 6.5 ENE 28 37 15 20 1021.9 - 0.0
02/10:00am 20.6 15.0 8.6 46 6.4 ENE 28 39 15 21 1022.2 - 0.0
02/09:30am 18.6 12.4 8.0 50 5.5 ENE 30 52 16 28 1022.4 - 0.0
02/09:27am 19.2 12.7 8.2 49 5.8 ENE 32 52 17 28 1022.4 - 0.0
02/09:00am 18.7 12.2 8.1 50 5.5 ENE 32 46 17 25 1022.6 1021.4 0.0
02/08:30am 17.8 12.0 8.1 53 5.1 ENE 28 37 15 20 1022.6 - 0.0
02/08:00am 16.7 9.5 7.6 55 4.7 ENE 35 46 19 25 1022.6 - 0.0
02/07:30am 15.9 9.7 7.7 58 4.2 ENE 30 39 16 21 1022.4 - 0.0
02/07:00am 15.1 9.6 7.4 60 3.9 ENE 26 33 14 18 1022.0 - 0.0
02/06:30am 14.1 9.3 7.4 64 3.4 ENE 22 30 12 16 1021.6 - 0.0
02/06:00am 12.9 8.5 7.4 69 2.7 ENE 20 24 11 13 1021.0 1019.7 0.0
02/05:30am 12.5 8.1 7.2 70 2.6 ENE 20 26 11 14 1020.4 - 0.0
02/05:00am 13.1 7.9 7.3 68 2.9 ENE 24 33 13 18 1020.1 - 0.0
02/04:30am 13.2 8.0 7.2 67 3.0 ENE 24 32 13 17 1019.6 - 0.0
02/04:00am 13.4 8.2 7.4 67 3.0 ENE 24 32 13 17 1019.4 - 0.0
02/03:30am 13.8 7.2 7.6 66 3.1 ENE 32 43 17 23 1019.2 - 0.0
02/03:00am 13.9 7.3 7.7 66 3.1 ENE 32 43 17 23 1019.1 1017.8 0.0
02/02:30am 14.0 7.2 7.8 66 3.1 ENE 33 43 18 23 1019.2 - 0.0
02/02:00am 14.4 8.3 8.1 66 3.2 ENE 30 43 16 23 1019.3 - 0.0
02/01:30am 14.5 9.1 8.2 66 3.2 ENE 26 39 14 21 1019.4 - 0.0
02/01:00am 14.6 10.5 8.8 68 3.0 E 20 30 11 16 1019.7 - 0.0
02/12:30am 14.9 11.6 9.7 71 2.7 ESE 17 22 9 12 1020.0 - 0.0
02/12:00am 15.7 12.0 10.2 70 2.9 NE 20 28 11 15 1019.9 1018.6 0.0
 
Date/Time
EST
Tmp

°C
App
Tmp
°C
Dew
Point
°C
Rel
Hum
%
Delta-T

°C
Wind Press
QNH
hPa
Press
MSL
hPa
Rain
since
9 am
mm
Dir
 
Spd
km/h
Gust
km/h
Spd
kts
Gust
kts
01/11:30pm 14.4 12.0 10.0 75 2.3 SE 13 17 7 9 1019.9 - 0.0
01/11:00pm 15.1 12.4 10.3 73 2.6 S 15 19 8 10 1019.7 - 0.0
01/10:30pm 15.8 12.5 9.5 66 3.3 S 17 20 9 11 1019.5 - 0.0
01/10:00pm 16.2 11.2 1.5 37 6.6 S 17 22 9 12 1019.1 - 0.0
01/09:30pm 16.7 13.3 1.6 36 6.9 SSE 9 11 5 6 1018.6 - 0.0
01/09:00pm 20.2 15.2 1.6 29 8.7 SSW 17 20 9 11 1018.4 1017.1 0.0
01/08:30pm 21.2 16.3 2.0 28 9.1 SSW 17 24 9 13 1018.0 - 0.0
01/08:00pm 22.4 17.2 2.5 27 9.6 SW 19 20 10 11 1017.6 - 0.0
01/07:30pm 23.4 18.0 2.3 25 10.2 SW 20 24 11 13 1017.1 - 0.0
01/07:00pm 24.0 18.7 1.6 23 10.8 SW 19 24 10 13 1016.9 - 0.0
01/06:30pm 25.1 18.6 0.6 20 11.6 SW 24 32 13 17 1016.4 - 0.0
01/06:00pm 26.3 19.5 0.9 19 12.2 SW 26 39 14 21 1016.0 1014.6 0.0
01/05:30pm 27.8 19.8 0.5 17 13.2 SW 32 41 17 22 1015.4 - 0.0
01/05:00pm 28.9 19.8 -0.3 15 14.0 SW 37 46 20 25 1015.1 - 0.0
01/04:30pm 30.1 21.2 0.6 15 14.5 WSW 37 46 20 25 1014.8 - 0.0
01/04:00pm 30.7 22.7 0.2 14 15.0 SW 32 41 17 22 1014.5 - 0.0
01/03:30pm 31.8 23.7 1.0 14 15.4 WSW 33 46 18 25 1014.3 - 0.0
01/03:05pm 31.3 23.3 0.6 14 15.2 WSW 32 52 17 28 1014.4 - 0.0
01/03:00pm 31.9 25.1 1.1 14 15.5 WSW 26 41 14 22 1014.3 1013.0 0.0
01/02:30pm 31.3 25.8 4.2 18 14.3 W 22 28 12 15 1014.5 - 0.0
01/02:00pm 30.9 24.6 3.8 18 14.1 W 26 44 14 24 1014.9 - 0.0
01/01:30pm 30.5 24.4 5.0 20 13.6 W 26 39 14 21 1015.3 - 0.0
01/01:00pm 29.5 23.4 4.9 21 13.0 W 26 41 14 22 1015.9 - 0.0
01/12:30pm 28.9 24.4 8.6 28 11.4 WNW 22 32 12 17 1016.4 - 0.0
01/12:00pm 28.3 24.4 9.6 31 10.6 W 20 30 11 16 1017.0 1015.7 0.0
01/11:30am 27.0 22.6 8.9 32 10.1 W 22 37 12 20 1017.6 - 0.0
01/11:00am 26.8 22.2 9.6 34 9.7 WNW 24 35 13 19 1018.0 - 0.0
01/10:30am 26.6 21.4 10.3 36 9.3 WNW 28 41 15 22 1018.5 - 0.0
01/10:00am 25.1 21.1 10.6 40 8.2 WNW 22 32 12 17 1018.8 - 0.0
01/09:30am 23.6 19.6 10.6 44 7.3 W 22 28 12 15 1019.3 - 0.0
01/09:00am 22.4 18.6 11.2 49 6.3 NW 22 28 12 15 1019.6 1018.3 0.0
01/08:30am 21.6 17.1 11.3 52 5.8 WNW 26 33 14 18 1019.8 - 0.0
01/08:00am 21.0 15.8 11.6 55 5.3 WNW 30 37 16 20 1019.9 - 0.0
01/07:30am 20.3 17.0 11.5 57 5.0 WNW 20 26 11 14 1019.3 - 0.0
01/07:00am 17.1 16.3 10.9 67 3.4 SE 6 7 3 4 1018.7 - 0.0
01/06:30am 14.0 13.0 11.0 82 1.6 E 7 11 4 6 1018.4 - 0.0
01/06:00am 10.8 8.8 8.6 86 1.1 ENE 9 9 5 5 1018.1 1016.9 0.0
01/05:30am 10.7 9.1 7.9 83 1.4 W 6 6 3 3 1018.0 - 0.0
01/05:00am 10.9 8.5 8.5 85 1.2 W 11 13 6 7 1017.7 - 0.0
01/04:30am 11.6 9.6 8.6 82 1.5 E 9 9 5 5 1017.0 - 0.0
01/04:00am 12.1 10.4 8.2 77 2.0 E 7 9 4 5 1016.9 - 0.0
01/03:30am 12.2 10.8 8.7 79 1.8 ENE 6 7 3 4 1016.9 - 0.0
01/03:00am 11.9 9.9 7.2 73 2.3 ENE 7 9 4 5 1017.0 1015.7 0.0
01/02:30am 12.9 10.5 8.6 75 2.2 NE 11 13 6 7 1017.1 - 0.0
01/02:00am 14.2 12.1 9.8 75 2.3 E 11 13 6 7 1017.3 - 0.0
01/01:30am 14.1 11.9 9.3 73 2.5 ENE 11 13 6 7 1017.5 - 0.0
01/01:00am 13.6 10.9 9.1 74 2.3 NE 13 15 7 8 1017.7 - 0.0
01/12:30am 14.2 11.2 9.2 72 2.6 NNE 15 17 8 9 1017.9 - 0.0
01/12:00am 14.7 12.1 9.3 70 2.8 E 13 13 7 7 1018.4 1017.6 0.0
 
Date/Time
EST
Tmp

°C
App
Tmp
°C
Dew
Point
°C
Rel
Hum
%
Delta-T

°C
Wind Press
QNH
hPa
Press
MSL
hPa
Rain
since
9 am
mm
Dir
 
Spd
km/h
Gust
km/h
Spd
kts
Gust
kts
30/11:30pm 14.0 11.8 8.0 67 3.0 ENE 9 13 5 7 1018.5 - 0.0
30/11:00pm 14.2 11.4 7.0 62 3.6 E 11 13 6 7 1018.8 - 0.0
30/10:30pm 16.9 15.6 7.8 55 4.7 E 4 6 2 3 1018.7 - 0.0
30/10:00pm 17.1 15.4 8.3 56 4.6 ENE 7 9 4 5 1018.7 - 0.0
30/09:30pm 18.1 15.3 8.7 54 5.0 NE 13 15 7 8 1018.7 - 0.0
30/09:00pm 19.2 16.8 8.5 50 5.7 ENE 11 13 6 7 1018.9 1018.2 0.0
30/08:30pm 19.4 17.7 7.5 46 6.2 ENE 6 7 3 4 1018.7 - 0.0
30/08:00pm 20.8 18.0 8.4 45 6.6 NE 13 15 7 8 1018.4 - 0.0
30/07:30pm 22.0 19.3 8.9 43 7.1 NE 13 17 7 9 1018.1 - 0.0
30/07:00pm 22.8 21.2 7.8 38 8.0 WNW 6 6 3 3 1017.8 - 0.0
30/06:30pm 23.4 21.1 7.5 36 8.5 W 9 11 5 6 1017.6 - 0.0
30/06:00pm 24.9 21.9 7.5 33 9.3 WSW 13 13 7 7 1017.2 1016.5 0.0
30/05:30pm 27.4 23.9 7.3 28 10.9 W 15 19 8 10 1017.0 - 0.0
30/05:00pm 28.7 25.2 7.3 26 11.7 WNW 15 19 8 10 1016.8 - 0.0
30/04:30pm 29.3 25.0 7.2 25 12.1 W 19 22 10 12 1016.7 - 0.0
30/04:00pm 28.9 25.7 6.9 25 12.0 NW 13 20 7 11 1016.7 - 0.0
30/03:30pm 28.8 25.6 6.8 25 11.9 WSW 13 22 7 12 1016.8 - 0.0
30/03:00pm 29.7 27.2 8.2 26 12.0 NW 11 26 6 14 1017.0 1016.3 0.0
30/02:30pm 29.4 26.6 8.5 27 11.7 WNW 13 24 7 13 1017.3 - 0.0
30/02:00pm 28.7 26.1 7.9 27 11.5 SSW 11 15 6 8 1017.6 - 0.0
30/01:30pm 28.4 26.8 8.7 29 11.0 NE 7 13 4 7 1017.8 - 0.0
30/01:00pm 27.8 25.4 8.6 30 10.7 NW 11 20 6 11 1018.5 - 0.0
30/12:30pm 27.2 23.2 8.1 30 10.5 WNW 19 22 10 12 1018.9 - 0.0
30/12:00pm 26.9 24.5 8.8 32 10.0 WSW 11 15 6 8 1019.5 1018.8 0.0
30/11:30am 27.1 24.2 9.5 33 9.9 WNW 15 24 8 13 1019.9 - 0.0
30/11:00am 25.3 22.4 9.6 37 8.8 W 15 24 8 13 1020.4 - 0.0
30/10:30am 24.4 22.2 9.2 38 8.4 NW 11 22 6 12 1020.9 - 0.0
30/10:00am 24.0 21.4 10.7 43 7.5 NW 15 22 8 12 1021.4 - 0.0
30/09:30am 22.7 20.0 10.5 46 6.8 WNW 15 24 8 13 1021.6 - 0.0
30/09:00am 21.5 20.1 10.9 51 5.9 NNW 9 13 5 7 1021.9 1021.2 0.0
30/08:30am 19.7 18.6 10.1 54 5.3 W 6 9 3 5 1021.9 - 0.0
30/08:00am 18.6 18.3 10.2 58 4.6 E 2 7 1 4 1021.8 - 0.0
30/07:30am 16.3 16.5 10.6 69 3.1 CALM 0 0 0 0 1021.7 - 0.0
30/07:00am 13.7 13.8 10.3 80 1.8 CALM 0 0 0 0 1021.5 - 0.0
30/06:30am 11.4 11.3 9.3 87 1.1 CALM 0 0 0 0 1021.3 - 0.0
30/06:00am 9.6 8.7 7.9 89 0.8 E 2 6 1 3 1020.9 1020.2 0.0
30/05:30am 8.9 6.6 7.4 90 0.7 ESE 9 11 5 6 1020.4 - 0.0
30/05:00am 9.3 6.7 7.7 90 0.8 SE 11 11 6 6 1020.1 - 0.0
30/04:30am 9.6 7.7 7.5 87 1.0 E 7 9 4 5 1019.9 - 0.0
30/04:00am 10.1 7.8 7.3 83 1.4 E 9 9 5 5 1019.6 - 0.0
30/03:30am 12.2 10.3 9.2 82 1.5 ENE 9 11 5 6 1019.5 - 0.0
30/03:00am 12.6 9.7 9.6 82 1.6 ENE 15 15 8 8 1019.4 1018.7 0.0
30/02:30am 12.6 10.0 9.4 81 1.7 NE 13 15 7 8 1019.5 - 0.0
30/02:00am 12.8 10.2 9.3 79 1.8 NE 13 15 7 8 1019.6 - 0.0
30/01:30am 13.0 10.4 9.3 78 1.9 NE 13 13 7 7 1019.7 - 0.0
30/01:00am 13.7 11.8 9.2 74 2.3 ENE 9 13 5 7 1019.8 - 0.0
30/12:30am 14.9 13.6 9.9 72 2.7 NE 7 9 4 5 1019.9 - 0.0
30/12:00am 15.7 13.8 10.5 71 2.8 ENE 11 13 6 7 1019.9 1019.2 0.0
 
Date/Time
EST
Tmp

°C
App
Tmp
°C
Dew
Point
°C
Rel
Hum
%
Delta-T

°C
Wind Press
QNH
hPa
Press
MSL
hPa
Rain
since
9 am
mm
Dir
 
Spd
km/h
Gust
km/h
Spd
kts
Gust
kts
29/11:30pm 16.3 13.8 11.0 71 2.9 NE 15 17 8 9 1020.0 - 0.0
29/11:00pm 16.5 13.6 11.0 70 3.0 ENE 17 20 9 11 1020.1 - 0.0
29/10:30pm 16.7 13.7 10.8 68 3.2 ENE 17 19 9 10 1020.3 - 0.0
29/10:00pm 17.4 14.7 10.5 64 3.8 NE 15 17 8 9 1020.2 - 0.0
29/09:30pm 17.6 14.0 9.8 60 4.2 NE 19 20 10 11 1020.1 - 0.0
29/09:00pm 18.0 14.1 8.8 55 4.9 NE 19 22 10 12 1019.9 1019.2 0.0
29/08:30pm 18.1 15.2 8.1 52 5.2 NE 13 17 7 9 1019.9 - 0.0
29/08:00pm 19.2 16.6 7.9 48 5.9 ENE 11 13 6 7 1019.7 - 0.0
29/07:30pm 20.0 16.3 8.0 46 6.3 NE 17 20 9 11 1019.2 - 0.0
29/07:00pm 20.1 17.1 6.1 40 7.1 SE 11 11 6 6 1018.7 - 0.0
29/06:30pm 21.6 19.0 6.3 37 7.9 ENE 9 9 5 5 1018.4 - 0.0
29/06:00pm 23.8 21.6 6.1 32 9.2 SE 7 9 4 5 1018.0 1017.3 0.0
29/05:30pm 24.9 22.9 6.1 30 9.9 ENE 6 7 3 4 1017.8 - 0.0
29/05:00pm 26.0 23.5 5.0 26 10.9 SSE 7 13 4 7 1017.6 - 0.0
29/04:30pm 27.2 24.9 5.5 25 11.4 WNW 7 15 4 8 1017.4 - 0.0
29/04:00pm 26.7 23.2 5.6 26 11.1 W 13 28 7 15 1017.3 - 0.0
29/03:30pm 26.9 24.1 5.2 25 11.3 WNW 9 17 5 9 1017.4 - 0.0
29/03:00pm 27.0 24.5 6.4 27 11.0 WSW 9 17 5 9 1017.4 1016.7 0.0
29/02:30pm 26.0 23.4 6.1 28 10.5 SW 9 13 5 7 1017.5 - 0.0
29/02:00pm 26.5 23.7 7.0 29 10.5 N 11 24 6 13 1017.6 - 0.0
29/01:30pm 26.1 21.9 8.1 32 9.8 W 20 26 11 14 1018.0 - 0.0
29/01:00pm 25.8 22.6 8.3 33 9.6 NNW 15 20 8 11 1018.6 - 0.0
29/12:30pm 25.9 23.7 8.0 32 9.8 SE 9 13 5 7 1018.9 - 0.0

Latest Capital City Observations: Canberra | Sydney | Melbourne | Brisbane | Adelaide | Perth | Hobart | Darwin

Other Formats:

Comma delimited format used in spreadsheet applications
http://www.bom.gov.au/fwo/IDQ60901/IDQ60901.94552.axf

JavaScript Object Notation format (JSON) in row-major order
http://www.bom.gov.au/fwo/IDQ60901/IDQ60901.94552.json